createdAt,value
2022-09-05T00:01:32.903Z,100906.06
2022-09-05T00:04:34.906Z,100909.78
2022-09-05T00:07:31.158Z,100920.06
2022-09-05T00:10:20.722Z,100920.91
2022-09-05T00:12:50.753Z,100916.78
2022-09-05T00:15:43.173Z,100930.41
2022-09-05T00:20:55.146Z,101151.59
2022-09-05T00:24:26.946Z,101161.28
2022-09-05T00:25:21.189Z,101157.59
2022-09-05T00:28:06.835Z,101139.19
2022-09-05T00:31:54.851Z,101137.53
2022-09-05T00:34:51.030Z,101124.81
2022-09-05T00:37:37.336Z,101108.16
2022-09-05T00:40:33.360Z,101091.59
2022-09-05T00:43:08.075Z,101086.94
2022-09-05T00:46:12.079Z,101069.72
2022-09-05T00:49:07.449Z,101051.69
2022-09-05T00:51:52.993Z,101046.44
2022-09-05T00:54:53.395Z,101038.50
2022-09-05T00:57:48.256Z,101025.78
2022-09-05T01:00:17.606Z,101008.94
2022-09-05T01:03:23.047Z,101023.44
2022-09-05T01:06:28.098Z,101025.56
2022-09-05T01:09:13.019Z,101013.25
2022-09-05T01:11:45.705Z,101003.63
2022-09-05T01:14:24.387Z,101002.81
2022-09-05T01:17:12.667Z,100999.72
2022-09-05T01:19:51.816Z,101008.19
2022-09-05T01:22:56.939Z,101000.38
2022-09-05T01:25:54.778Z,100994.44
2022-09-05T01:29:15.426Z,100990.56
2022-09-05T01:31:58.798Z,100982.13
2022-09-05T01:34:31.333Z,100967.34
2022-09-05T01:37:07.439Z,100963.00
2022-09-05T01:40:14.809Z,100971.69
2022-09-05T01:42:49.462Z,100958.75
2022-09-05T01:45:30.240Z,100961.41
2022-09-05T01:48:30.460Z,100962.00
2022-09-05T01:51:29.421Z,100951.31
2022-09-05T01:54:16.105Z,100940.44
2022-09-05T01:57:33.233Z,100933.03
2022-09-05T02:00:12.582Z,100936.53
2022-09-05T02:03:07.085Z,100934.63
2022-09-05T02:06:19.395Z,100927.69
2022-09-05T02:08:49.084Z,100928.72
2022-09-05T02:11:16.609Z,100918.44
2022-09-05T02:14:34.507Z,100907.97
2022-09-05T02:17:49.681Z,100896.06
2022-09-05T02:20:46.913Z,100907.78
2022-09-05T02:23:40.689Z,100895.84
2022-09-05T02:26:34.655Z,100889.47
2022-09-05T02:29:39.632Z,100893.59
2022-09-05T02:32:18.424Z,100907.97
2022-09-05T02:34:58.973Z,100906.94
2022-09-05T02:40:07.750Z,100906.94
2022-09-05T02:45:03.629Z,100927.50
2022-09-05T02:45:08.931Z,100939.97
2022-09-05T02:46:45.504Z,100953.56
2022-09-05T02:50:58.280Z,100966.72
2022-09-05T02:57:25.072Z,100963.22
2022-09-05T02:57:35.415Z,100964.25
2022-09-05T02:59:08.145Z,100966.94
2022-09-05T03:01:46.930Z,100950.69
2022-09-05T03:04:13.761Z,100964.88
2022-09-05T03:06:55.022Z,100980.72
2022-09-05T03:10:12.509Z,101003.94
2022-09-05T03:12:41.861Z,101009.50
2022-09-05T03:15:56.515Z,101012.78
2022-09-05T03:18:26.364Z,101006.63
2022-09-05T03:21:14.560Z,101017.91
2022-09-05T03:24:10.926Z,101027.16
2022-09-05T03:27:14.704Z,101029.22
2022-09-05T03:30:18.904Z,101024.91
2022-09-05T03:33:07.374Z,101038.25
2022-09-05T03:35:49.079Z,101036.41
2022-09-05T03:38:56.878Z,101048.56
2022-09-05T03:41:40.587Z,101050.41
2022-09-05T03:44:16.984Z,101038.50
2022-09-05T03:47:11.774Z,101038.69
2022-09-05T03:55:52.833Z,101046.31
2022-09-05T03:57:17.190Z,101050.19
2022-09-05T03:57:27.198Z,101048.53
2022-09-05T03:59:21.379Z,101039.31
2022-09-05T04:02:57.966Z,101050.63
2022-09-05T04:08:18.541Z,101055.34
2022-09-05T04:08:24.412Z,101045.69
2022-09-05T04:10:42.500Z,101036.22
2022-09-05T04:13:20.719Z,101037.84
2022-09-05T04:16:01.722Z,101044.84
2022-09-05T04:18:39.478Z,101045.28
2022-09-05T04:21:34.660Z,101058.84
2022-09-05T04:24:10.444Z,101046.13
2022-09-05T04:26:58.396Z,101066.88
2022-09-05T04:29:28.218Z,101063.63
2022-09-05T04:32:18.841Z,101052.31
2022-09-05T04:35:11.898Z,101056.63
2022-09-05T04:37:48.938Z,101064.00
2022-09-05T04:40:41.011Z,101071.63
2022-09-05T04:43:19.005Z,101071.84
2022-09-05T04:45:54.729Z,101076.34
2022-09-05T04:48:35.021Z,101079.84
2022-09-05T04:51:21.016Z,101077.59
2022-09-05T04:54:05.327Z,101078.63
2022-09-05T04:56:38.067Z,101080.69
2022-09-05T05:01:40.730Z,101082.75
2022-09-05T05:06:08.110Z,101076.38
2022-09-05T05:06:09.419Z,101082.16
2022-09-05T05:07:57.888Z,101074.75
2022-09-05T05:16:34.079Z,101069.00
2022-09-05T05:18:11.478Z,101076.41
2022-09-05T05:18:12.956Z,101082.34
2022-09-05T05:19:33.485Z,101084.03
2022-09-05T05:22:04.980Z,101091.22
2022-09-05T05:24:42.463Z,101097.78
2022-09-05T05:27:56.906Z,101101.06
2022-09-05T05:30:31.972Z,101099.41
2022-09-05T05:33:04.015Z,101102.91
2022-09-05T05:35:33.632Z,101098.78
2022-09-05T05:38:37.532Z,101091.00
2022-09-05T05:41:19.062Z,101099.03
2022-09-05T05:43:47.721Z,101103.53
2022-09-05T05:46:27.186Z,101108.88
2022-09-05T05:49:04.221Z,101113.19
2022-09-05T05:52:01.248Z,101114.00
2022-09-05T05:54:36.246Z,101110.53
2022-09-05T05:57:56.919Z,101108.06
2022-09-05T06:00:29.731Z,101113.41
2022-09-05T06:03:38.116Z,101119.75
2022-09-05T06:06:32.724Z,101126.94
2022-09-05T06:12:01.145Z,101134.75
2022-09-05T06:15:01.763Z,101140.91
2022-09-05T06:15:26.907Z,101152.19
2022-09-05T06:17:54.081Z,101151.00
2022-09-05T06:22:06.423Z,101154.88
2022-09-05T06:23:46.445Z,101146.25
2022-09-05T06:26:42.689Z,101143.38
2022-09-05T06:29:15.497Z,101154.66
2022-09-05T06:32:14.185Z,101152.00
2022-09-05T06:34:46.691Z,101165.16
2022-09-05T06:37:46.818Z,101151.59
2022-09-05T06:40:30.250Z,101160.03
2022-09-05T06:43:22.048Z,101166.00
2022-09-05T06:46:05.044Z,101178.09
2022-09-05T06:48:46.045Z,101182.44
2022-09-05T06:51:48.703Z,101178.72
2022-09-05T06:55:00.043Z,101178.53
2022-09-05T06:57:35.809Z,101180.59
2022-09-05T07:00:33.920Z,101186.72
2022-09-05T07:03:13.557Z,101191.06
2022-09-05T07:05:50.371Z,101204.00
2022-09-05T07:09:02.707Z,101192.09
2022-09-05T07:12:06.058Z,101200.72
2022-09-05T07:14:36.174Z,101200.94
2022-09-05T07:17:59.695Z,101218.19
2022-09-05T07:21:15.968Z,101207.91
2022-09-05T07:24:09.335Z,101215.31
2022-09-05T07:26:53.751Z,101217.59
2022-09-05T07:29:35.251Z,101218.00
2022-09-05T07:32:06.494Z,101211.22
2022-09-05T07:34:38.080Z,101215.94
2022-09-05T07:37:15.114Z,101216.75
2022-09-05T07:39:57.968Z,101223.94
2022-09-05T07:43:09.360Z,101219.00
2022-09-05T07:45:55.277Z,101224.13
2022-09-05T07:48:34.856Z,101227.41
2022-09-05T07:56:52.760Z,101222.69
2022-09-05T07:56:54.953Z,101217.13
2022-09-05T07:59:53.698Z,101227.78
2022-09-05T08:02:20.758Z,101226.53
2022-09-05T08:04:47.746Z,101229.41
2022-09-05T08:07:48.272Z,101229.59
2022-09-05T08:10:15.390Z,101227.09
2022-09-05T08:13:24.723Z,101232.00
2022-09-05T08:16:10.997Z,101232.44
2022-09-05T08:18:50.410Z,101234.06
2022-09-05T08:21:40.009Z,101226.63
2022-09-05T08:24:27.064Z,101229.50
2022-09-05T08:27:06.077Z,101230.91
2022-09-05T08:30:25.656Z,101216.50
2022-09-05T08:33:13.208Z,101222.28
2022-09-05T08:35:50.182Z,101225.53
2022-09-05T08:38:21.729Z,101237.91
2022-09-05T08:41:42.980Z,101250.66
2022-09-05T08:46:35.293Z,101260.56
2022-09-05T08:47:25.391Z,101257.03
2022-09-05T08:50:27.230Z,101256.38
2022-09-05T08:53:28.368Z,101259.69
2022-09-05T08:56:01.536Z,101261.72
2022-09-05T08:58:43.699Z,101268.06
2022-09-05T09:01:14.149Z,101264.13
2022-09-05T09:03:59.919Z,101262.91
2022-09-05T09:07:29.166Z,101260.59
2022-09-05T09:10:01.681Z,101267.59
2022-09-05T09:13:05.101Z,101267.41
2022-09-05T09:15:46.209Z,101268.44
2022-09-05T09:18:16.401Z,101269.06
2022-09-05T09:20:56.998Z,101270.47
2022-09-05T09:23:45.067Z,101263.63
2022-09-05T09:26:24.552Z,101264.03
2022-09-05T09:29:21.204Z,101257.19
2022-09-05T09:32:13.905Z,101267.69
2022-09-05T09:34:53.532Z,101266.66
2022-09-05T09:37:51.832Z,101265.22
2022-09-05T09:40:38.423Z,101265.38
2022-09-05T09:43:23.434Z,101274.22
2022-09-05T09:46:18.469Z,101277.88
2022-09-05T09:49:03.329Z,101283.03
2022-09-05T09:52:19.416Z,101278.06
2022-09-05T09:55:09.642Z,101274.50
2022-09-05T09:58:12.381Z,101272.56
2022-09-05T10:01:35.898Z,101274.38
2022-09-05T10:08:22.971Z,101270.84
2022-09-05T10:10:51.338Z,101278.38
2022-09-05T10:10:51.763Z,101280.91
2022-09-05T10:13:27.338Z,101279.56
2022-09-05T10:16:16.145Z,101274.44
2022-09-05T10:18:54.644Z,101271.53
2022-09-05T10:21:40.388Z,101271.53
2022-09-05T10:24:29.971Z,101266.78
2022-09-05T10:27:13.951Z,101265.28
2022-09-05T10:30:08.093Z,101257.84
2022-09-05T10:35:07.968Z,101262.38
2022-09-05T10:36:17.560Z,101251.28
2022-09-05T10:38:47.481Z,101247.78
2022-09-05T10:41:21.140Z,101248.00
2022-09-05T10:44:02.520Z,101247.78
2022-09-05T10:46:56.432Z,101254.19
2022-09-05T10:49:34.893Z,101250.66
2022-09-05T10:52:19.231Z,101246.13
2022-09-05T10:55:18.738Z,101236.81
2022-09-05T10:57:48.356Z,101246.72
2022-09-05T11:02:22.999Z,101250.47
2022-09-05T11:03:37.273Z,101239.94
2022-09-05T11:06:12.272Z,101236.44
2022-09-05T11:08:39.100Z,101219.72
2022-09-05T11:11:34.594Z,101223.69
2022-09-05T11:14:26.394Z,101230.69
2022-09-05T11:17:07.359Z,101236.88
2022-09-05T11:19:47.661Z,101228.22
2022-09-05T11:22:22.933Z,101238.75
2022-09-05T11:25:03.816Z,101235.41
2022-09-05T11:27:36.595Z,101237.88
2022-09-05T11:30:30.991Z,101237.03
2022-09-05T11:37:35.804Z,101228.31
2022-09-05T11:39:57.629Z,101226.41
2022-09-05T11:40:07.349Z,101229.50
2022-09-05T11:42:50.448Z,101227.78
2022-09-05T11:45:46.109Z,101230.00
2022-09-05T11:48:53.574Z,101248.34
2022-09-05T11:51:26.038Z,101250.19
2022-09-05T11:54:28.895Z,101251.00
2022-09-05T11:57:02.202Z,101254.31
2022-09-05T12:00:31.947Z,101256.94
2022-09-05T12:03:01.838Z,101254.16
2022-09-05T12:05:59.417Z,101257.81
2022-09-05T12:08:28.804Z,101248.50
2022-09-05T12:11:27.858Z,101255.28
2022-09-05T12:14:37.002Z,101252.38
2022-09-05T12:17:35.103Z,101247.81
2022-09-05T12:20:17.270Z,101236.72
2022-09-05T12:23:53.606Z,101232.00
2022-09-05T12:27:41.240Z,101240.97
2022-09-05T12:29:29.332Z,101238.72
2022-09-05T12:33:28.353Z,101231.94
2022-09-05T12:36:03.852Z,101238.34
2022-09-05T12:41:43.150Z,101248.47
2022-09-05T12:42:10.704Z,101238.56
2022-09-05T12:44:41.192Z,101246.41
2022-09-05T12:47:16.754Z,101242.69
2022-09-05T12:50:02.699Z,101238.97
2022-09-05T12:52:34.078Z,101240.56
2022-09-05T12:55:11.341Z,101246.78
2022-09-05T13:02:36.300Z,101242.22
2022-09-05T13:03:07.759Z,101233.13
2022-09-05T13:04:05.992Z,101222.41
2022-09-05T13:06:39.285Z,101224.25
2022-09-05T13:09:16.984Z,101228.81
2022-09-05T13:14:46.802Z,101236.84
2022-09-05T13:15:18.670Z,101228.81
2022-09-05T13:18:17.570Z,101228.81
2022-09-05T13:21:00.386Z,101220.75
2022-09-05T13:23:39.655Z,101218.53
2022-09-05T13:26:13.393Z,101205.53
2022-09-05T13:29:21.315Z,101205.31
2022-09-05T13:38:07.998Z,101215.03
2022-09-05T13:38:19.619Z,101204.50
2022-09-05T13:38:37.797Z,101212.41
2022-09-05T13:41:27.599Z,101202.94
2022-09-05T13:44:00.394Z,101205.25
2022-09-05T13:46:57.409Z,101205.25
2022-09-05T13:49:55.538Z,101203.16
2022-09-05T13:52:45.178Z,101206.66
2022-09-05T13:55:40.202Z,101199.19
2022-09-05T13:58:35.232Z,101200.25
2022-09-05T14:01:28.556Z,101188.72
2022-09-05T14:03:57.282Z,101186.03
2022-09-05T14:06:45.453Z,101178.78
2022-09-05T14:09:43.003Z,101175.03
2022-09-05T14:12:33.411Z,101181.47
2022-09-05T14:15:25.229Z,101176.09
2022-09-05T14:17:58.237Z,101170.94
2022-09-05T14:20:49.694Z,101179.00
2022-09-05T14:23:19.473Z,101169.66
2022-09-05T14:26:14.779Z,101164.09
2022-09-05T14:28:52.291Z,101161.88
2022-09-05T14:35:35.290Z,101151.13
2022-09-05T14:37:49.994Z,101133.16
2022-09-05T14:38:09.314Z,101122.63
2022-09-05T14:41:15.685Z,101122.03
2022-09-05T14:43:59.501Z,101129.72
2022-09-05T14:46:45.652Z,101130.56
2022-09-05T14:49:50.488Z,101128.91
2022-09-05T14:52:30.671Z,101123.53
2022-09-05T15:02:38.482Z,101131.94
2022-09-05T15:02:44.082Z,101137.31
2022-09-05T15:06:41.200Z,101130.91
2022-09-05T15:12:21.289Z,101133.16
2022-09-05T15:12:33.208Z,101125.09
2022-09-05T15:15:20.435Z,101122.41
2022-09-05T15:17:50.823Z,101110.03
2022-09-05T15:20:37.512Z,101101.78
2022-09-05T15:23:16.745Z,101101.53
2022-09-05T15:26:02.902Z,101095.94
2022-09-05T15:28:50.934Z,101086.25
2022-09-05T15:31:39.456Z,101079.22
2022-09-05T15:34:28.427Z,101080.44
2022-09-05T15:36:56.726Z,101074.38
2022-09-05T15:39:43.974Z,101074.50
2022-09-05T15:42:22.697Z,101067.63
2022-09-05T15:45:09.631Z,101066.72
2022-09-05T15:47:39.715Z,101067.91
2022-09-05T15:50:38.570Z,101065.00
2022-09-05T15:53:05.637Z,101058.69
2022-09-05T15:55:46.055Z,101048.75
2022-09-05T15:58:19.621Z,101044.22
2022-09-05T16:00:55.690Z,101034.50
2022-09-05T16:04:01.188Z,101042.81
2022-09-05T16:10:35.757Z,101046.41
2022-09-05T16:10:36.591Z,101049.94
2022-09-05T16:18:23.374Z,101040.44
2022-09-05T16:23:13.154Z,101026.44
2022-09-05T16:23:37.372Z,101021.78
2022-09-05T16:24:06.124Z,101024.31
2022-09-05T16:26:40.881Z,101027.22
2022-09-05T16:29:25.209Z,101030.75
2022-09-05T16:32:25.562Z,101036.09
2022-09-05T16:34:57.759Z,101048.09
2022-09-05T16:37:40.706Z,101035.28
2022-09-05T16:40:26.196Z,101033.41
2022-09-05T16:43:18.401Z,101032.13
2022-09-05T16:45:54.743Z,101032.13
2022-09-05T16:48:37.561Z,101032.13
2022-09-05T16:51:35.507Z,101018.72
2022-09-05T16:54:33.895Z,101017.06
2022-09-05T16:57:17.038Z,101008.78
2022-09-05T16:59:55.353Z,101006.72
2022-09-05T17:02:36.411Z,101004.59
2022-09-05T17:05:38.296Z,101000.41
2022-09-05T17:08:26.024Z,101007.41
2022-09-05T17:11:13.728Z,100998.31
2022-09-05T17:14:06.458Z,100993.53
2022-09-05T17:16:56.532Z,100985.59
2022-09-05T17:19:33.671Z,100983.47
2022-09-05T17:25:16.870Z,100981.06
2022-09-05T17:29:30.890Z,100976.25
2022-09-05T17:29:32.752Z,100970.88
2022-09-05T17:33:45.074Z,100977.06
2022-09-05T17:36:21.668Z,100978.09
2022-09-05T17:39:10.760Z,100978.38
2022-09-05T17:42:09.615Z,100983.13
2022-09-05T17:44:46.643Z,100983.97
2022-09-05T17:47:17.381Z,100985.81
2022-09-05T17:50:00.434Z,100984.19
2022-09-05T17:52:27.669Z,100989.81
2022-09-05T17:55:10.317Z,100986.28
2022-09-05T17:57:39.451Z,100983.00
2022-09-05T18:00:49.043Z,100981.97
2022-09-05T18:03:38.970Z,100970.41
2022-09-05T18:06:15.689Z,100970.63
2022-09-05T18:08:46.381Z,100956.38
2022-09-05T18:14:29.809Z,100957.19
2022-09-05T18:19:57.843Z,100946.13
2022-09-05T18:22:30.038Z,100947.75
2022-09-05T18:28:22.492Z,100946.72
2022-09-05T18:30:49.624Z,100946.72
2022-09-05T18:33:56.326Z,100938.66
2022-09-05T18:36:25.703Z,100934.34
2022-09-05T18:39:24.346Z,100937.25
2022-09-05T18:42:09.127Z,100940.41
2022-09-05T18:44:55.342Z,100948.69
2022-09-05T18:47:53.237Z,100940.63
2022-09-05T18:50:32.463Z,100945.19
2022-09-05T18:53:09.106Z,100945.19
2022-09-05T18:56:13.363Z,100948.09
2022-09-05T18:59:13.358Z,100948.56
2022-09-05T19:01:53.791Z,100960.69
2022-09-05T19:04:51.209Z,100949.94
2022-09-05T19:07:35.804Z,100953.69
2022-09-05T19:10:36.281Z,100953.09
2022-09-05T19:12:56.386Z,100963.03
2022-09-05T19:15:34.288Z,100958.69
2022-09-05T19:18:26.386Z,100955.19
2022-09-05T19:21:12.179Z,100944.72
2022-09-05T19:24:02.603Z,100948.22
2022-09-05T19:26:33.889Z,100950.06
2022-09-05T19:36:47.390Z,100949.47
2022-09-05T19:36:52.112Z,100938.50
2022-09-05T19:37:07.385Z,100939.78
2022-09-05T19:37:54.832Z,100925.78
2022-09-05T19:47:31.136Z,100928.91
2022-09-05T19:47:39.123Z,100922.72
2022-09-05T19:47:39.457Z,100915.97
2022-09-05T19:49:12.546Z,100909.19
2022-09-05T19:51:47.664Z,100911.31
2022-09-05T19:54:30.481Z,100904.91
2022-09-05T19:57:07.761Z,100905.47
2022-09-05T19:59:39.943Z,100897.06
2022-09-05T20:02:22.057Z,100909.88
2022-09-05T20:04:56.338Z,100910.34
2022-09-05T20:07:29.211Z,100913.25
2022-09-05T20:10:05.814Z,100901.09
2022-09-05T20:12:38.883Z,100902.16
2022-09-05T20:15:24.212Z,100879.25
2022-09-05T20:17:53.788Z,100889.44
2022-09-05T20:20:27.364Z,100885.31
2022-09-05T20:23:22.087Z,100879.13
2022-09-05T20:25:53.212Z,100870.31
2022-09-05T20:28:27.317Z,100857.94
2022-09-05T20:31:02.961Z,100854.41
2022-09-05T20:33:44.072Z,100845.78
2022-09-05T20:43:07.949Z,100851.41
2022-09-05T20:43:29.409Z,100873.91
2022-09-05T20:43:35.040Z,100860.22
2022-09-05T20:44:51.921Z,100887.31
2022-09-05T20:54:05.522Z,100892.69
2022-09-05T20:54:20.331Z,100895.56
2022-09-05T20:54:28.316Z,100901.75
2022-09-05T20:56:23.269Z,100893.72
2022-09-05T20:58:51.411Z,100893.13
2022-09-05T21:01:22.862Z,100892.06
2022-09-05T21:04:01.356Z,100899.56
2022-09-05T21:06:36.628Z,100883.91
2022-09-05T21:09:22.523Z,100878.75
2022-09-05T21:12:14.880Z,100877.97
2022-09-05T21:15:07.326Z,100889.72
2022-09-05T21:18:01.520Z,100876.53
2022-09-05T21:20:28.798Z,100867.69
2022-09-05T21:22:55.580Z,100871.41
2022-09-05T21:25:25.688Z,100869.53
2022-09-05T21:28:21.939Z,100865.22
2022-09-05T21:30:48.843Z,100862.31
2022-09-05T21:33:20.099Z,100855.09
2022-09-05T21:35:59.433Z,100857.78
2022-09-05T21:38:33.596Z,100854.50
2022-09-05T21:41:05.051Z,100854.50
2022-09-05T21:47:33.118Z,100859.06
2022-09-05T21:47:46.173Z,100854.50
2022-09-05T21:49:09.234Z,100847.50
2022-09-05T21:51:37.471Z,100834.09
2022-09-05T21:59:14.714Z,100826.28
2022-09-05T21:59:25.012Z,100845.06
2022-09-05T21:59:47.486Z,100911.88
2022-09-05T22:02:17.023Z,101005.28
2022-09-05T22:04:44.087Z,101020.34
2022-09-05T22:07:32.575Z,101014.97
2022-09-05T22:10:04.497Z,101005.28
2022-09-05T22:12:36.228Z,101025.72
2022-09-05T22:15:26.176Z,101032.31
2022-09-05T22:18:16.593Z,101055.06
2022-09-05T22:21:34.125Z,101072.50
2022-09-05T22:24:08.880Z,101075.72
2022-09-05T22:27:11.767Z,101070.25
2022-09-05T22:29:56.743Z,101071.19
2022-09-05T22:32:34.361Z,101081.19
2022-09-05T22:35:27.010Z,101088.09
2022-09-05T22:37:59.361Z,101082.63
2022-09-05T22:40:27.986Z,101060.66
2022-09-05T22:43:00.318Z,101016.00
2022-09-05T22:45:28.656Z,100993.84
2022-09-05T22:47:55.998Z,100994.91
2022-09-05T22:50:23.836Z,100976.06
2022-09-05T22:52:50.858Z,100952.00
2022-09-05T22:55:17.703Z,100912.56
2022-09-05T22:57:46.719Z,100898.72
2022-09-05T23:00:14.037Z,100896.53
2022-09-05T23:02:41.023Z,100909.94
2022-09-05T23:05:11.490Z,100920.47
2022-09-05T23:07:39.007Z,100927.09
2022-09-05T23:10:06.029Z,100909.59
2022-09-05T23:12:42.525Z,100892.53
2022-09-05T23:15:25.641Z,100877.50
2022-09-05T23:17:57.698Z,100877.50
2022-09-05T23:20:26.571Z,100895.41
2022-09-05T23:22:53.578Z,100895.63
2022-09-05T23:25:21.760Z,100896.69
2022-09-05T23:28:05.332Z,100894.41
2022-09-05T23:30:32.150Z,100898.13
2022-09-05T23:32:58.920Z,100891.75
2022-09-05T23:35:29.210Z,100899.75
2022-09-05T23:38:03.590Z,100899.56
2022-09-05T23:40:30.484Z,100898.75
2022-09-05T23:43:01.348Z,100884.34
2022-09-05T23:45:29.484Z,100895.03
2022-09-05T23:48:00.046Z,100897.72
2022-09-05T23:50:28.216Z,100893.19
2022-09-05T23:52:55.310Z,100888.66
2022-09-05T23:55:23.566Z,100887.84
2022-09-05T23:57:56.438Z,100891.34
